Time;durP1;ratioP1;P1;durP2;ratioP2;P2;SDS_P1;SDS_P2;PMS_P1;PMS_P2;Temp;Humidity;BMP_temperature;BMP_pressure;BME280_temperature;BME280_humidity;BME280_pressure;Samples;Min_cycle;Max_cycle;Signal;HPM_P1;HPM_P2
2022/04/30 00:01:19;;;;;;;11.57;5.50;;;12.10;50.90;;;;;;5096364;28;20021;-60
2022/04/30 00:03:46;;;;;;;7.00;4.88;;;12.10;51.00;;;;;;5105450;28;20043;-60
2022/04/30 00:06:12;;;;;;;6.25;4.38;;;12.10;51.00;;;;;;5100165;28;20408;-61
2022/04/30 00:08:38;;;;;;;6.63;3.95;;;12.10;51.00;;;;;;5098522;28;20041;-59
2022/04/30 00:11:07;;;;;;;6.15;3.65;;;12.10;51.10;;;;;;5101696;28;20023;-60
2022/04/30 00:13:33;;;;;;;6.70;3.45;;;12.00;51.10;;;;;;5097784;28;20037;-60
2022/04/30 00:15:59;;;;;;;8.43;3.75;;;12.00;51.10;;;;;;5098011;28;20106;-59
2022/04/30 00:18:25;;;;;;;5.45;3.20;;;12.00;51.10;;;;;;5096121;28;20096;-59
2022/04/30 00:20:50;;;;;;;5.55;3.75;;;12.00;51.30;;;;;;5102388;28;20058;-61
2022/04/30 00:23:19;;;;;;;5.05;3.45;;;12.00;51.40;;;;;;5096904;28;20020;-59
2022/04/30 00:25:55;;;;;;;6.25;3.70;;;11.90;51.40;;;;;;5101424;28;20032;-59
2022/04/30 00:28:24;;;;;;;5.00;3.20;;;11.90;52.40;;;;;;5102014;28;20087;-59
2022/04/30 00:30:50;;;;;;;4.88;3.35;;;11.90;51.80;;;;;;5094284;28;20088;-59
2022/04/30 00:33:16;;;;;;;5.47;3.80;;;11.90;51.90;;;;;;5106895;28;20046;-61
2022/04/30 00:35:43;;;;;;;5.72;3.67;;;11.90;52.00;;;;;;5104845;28;20036;-61
2022/04/30 00:38:09;;;;;;;7.65;3.17;;;11.90;52.10;;;;;;5108492;28;20087;-60
2022/04/30 00:40:35;;;;;;;4.20;3.05;;;11.90;52.10;;;;;;5102582;28;20032;-59
2022/04/30 00:43:01;;;;;;;3.95;3.42;;;11.80;52.10;;;;;;5104247;28;20035;-59
2022/04/30 00:45:26;;;;;;;4.30;3.25;;;11.80;52.10;;;;;;5098016;28;20069;-60
2022/04/30 00:47:52;;;;;;;4.25;3.25;;;11.80;52.30;;;;;;5101865;28;20043;-60
2022/04/30 00:50:21;;;;;;;4.47;3.17;;;11.80;52.40;;;;;;5107300;28;20059;-59
2022/04/30 00:52:49;;;;;;;5.40;3.20;;;11.80;52.40;;;;;;5107777;28;20040;-60
2022/04/30 00:55:21;;;;;;;4.18;3.47;;;11.70;52.20;;;;;;5102741;28;20024;-60
2022/04/30 00:57:50;;;;;;;3.70;3.13;;;11.80;52.80;;;;;;5107709;28;20032;-60
2022/04/30 01:00:16;;;;;;;4.25;3.20;;;11.80;52.60;;;;;;5101921;28;20088;-60
2022/04/30 01:02:43;;;;;;;4.68;3.20;;;11.70;52.50;;;;;;5099845;28;20024;-58
2022/04/30 01:05:10;;;;;;;4.63;3.47;;;11.70;52.50;;;;;;5101255;28;20032;-61
2022/04/30 01:07:36;;;;;;;5.43;3.63;;;11.70;52.70;;;;;;5106125;28;20027;-59
2022/04/30 01:10:03;;;;;;;4.65;3.17;;;11.70;52.90;;;;;;5097559;28;20027;-60
2022/04/30 01:12:30;;;;;;;5.75;3.33;;;11.70;52.90;;;;;;5102504;28;20031;-59
2022/04/30 01:14:56;;;;;;;6.63;3.47;;;11.70;52.90;;;;;;5104149;28;20020;-60
2022/04/30 01:17:22;;;;;;;4.80;3.25;;;11.70;53.00;;;;;;5099990;28;20082;-60
2022/04/30 01:19:49;;;;;;;3.97;3.28;;;11.70;52.90;;;;;;5108105;28;20016;-59
2022/04/30 01:22:39;;;;;;;4.53;3.33;;;11.70;53.10;;;;;;5108515;28;20186;-61
2022/04/30 01:25:05;;;;;;;3.92;3.22;;;11.70;54.00;;;;;;5093707;28;20016;-59
2022/04/30 01:27:31;;;;;;;6.80;3.38;;;11.70;53.10;;;;;;5097951;28;20051;-61
2022/04/30 01:30:00;;;;;;;4.03;3.28;;;11.70;53.10;;;;;;5103251;28;20455;-59
2022/04/30 01:38:15;;;;;;;4.35;3.00;;;11.70;53.00;;;;;;5077051;28;20040;-61
2022/04/30 01:40:41;;;;;;;5.40;2.90;;;11.70;52.90;;;;;;5072877;28;20288;-59
2022/04/30 01:43:07;;;;;;;4.53;3.17;;;11.70;53.00;;;;;;5075121;28;20043;-61
2022/04/30 01:45:34;;;;;;;3.97;3.00;;;11.60;53.00;;;;;;5081291;28;20032;-59
2022/04/30 01:48:04;;;;;;;4.03;3.13;;;11.60;53.00;;;;;;5081029;28;20036;-58
2022/04/30 01:50:31;;;;;;;4.75;3.13;;;11.60;53.30;;;;;;5079827;28;20044;-60
2022/04/30 01:52:57;;;;;;;6.18;3.25;;;11.60;53.20;;;;;;5079383;28;20040;-58
2022/04/30 01:55:23;;;;;;;3.28;2.97;;;11.60;53.20;;;;;;5075969;28;20047;-60
2022/04/30 01:57:48;;;;;;;4.03;3.20;;;11.60;53.30;;;;;;5075141;28;20040;-61
2022/04/30 02:00:14;;;;;;;6.20;3.63;;;11.60;53.20;;;;;;5084017;28;20036;-60
2022/04/30 02:02:45;;;;;;;4.55;3.35;;;11.60;53.30;;;;;;5078664;28;20033;-61
2022/04/30 02:05:13;;;;;;;7.07;3.10;;;11.60;53.50;;;;;;5071279;28;20037;-60
2022/04/30 02:08:03;;;;;;;3.58;3.05;;;11.60;53.50;;;;;;5081383;28;20380;-59
2022/04/30 02:10:29;;;;;;;4.47;3.05;;;11.60;53.80;;;;;;5078329;28;20036;-59
2022/04/30 02:12:55;;;;;;;6.18;3.30;;;11.60;53.40;;;;;;5097940;28;20037;-61
2022/04/30 02:15:23;;;;;;;3.30;2.90;;;11.60;53.50;;;;;;5111964;28;20054;-61
2022/04/30 02:17:50;;;;;;;3.30;2.88;;;11.60;53.60;;;;;;5104659;28;20054;-61
2022/04/30 02:20:25;;;;;;;5.90;3.13;;;11.50;53.50;;;;;;5106896;28;20028;-60
2022/04/30 02:22:53;;;;;;;7.00;3.67;;;11.50;53.60;;;;;;5107069;28;20024;-59
2022/04/30 02:25:20;;;;;;;6.90;3.35;;;11.50;53.70;;;;;;5108971;28;20024;-60
2022/04/30 02:27:54;;;;;;;7.15;3.33;;;11.50;53.90;;;;;;5101197;28;20042;-60
2022/04/30 02:30:21;;;;;;;6.00;3.13;;;11.50;54.00;;;;;;5099585;28;20024;-60
2022/04/30 02:32:55;;;;;;;4.63;3.30;;;11.50;53.80;;;;;;5109332;28;20023;-60
2022/04/30 02:35:26;;;;;;;4.78;3.33;;;11.50;54.20;;;;;;5100176;28;20016;-61
2022/04/30 02:37:54;;;;;;;6.97;3.55;;;11.50;54.00;;;;;;5102313;28;20044;-60
2022/04/30 02:40:22;;;;;;;5.97;3.45;;;11.50;53.90;;;;;;5116519;27;20024;-60
2022/04/30 02:42:50;;;;;;;4.50;3.78;;;11.50;54.00;;;;;;5109477;28;20020;-61
2022/04/30 02:45:17;;;;;;;7.35;3.78;;;11.40;54.10;;;;;;5106445;28;20435;-59
2022/04/30 02:47:45;;;;;;;5.38;4.07;;;11.40;54.20;;;;;;5105750;28;20024;-61
2022/04/30 02:50:13;;;;;;;7.50;4.38;;;11.40;54.30;;;;;;5098539;28;20050;-60
2022/04/30 02:52:43;;;;;;;5.15;3.88;;;11.40;54.40;;;;;;5101534;28;20027;-59
2022/04/30 02:55:10;;;;;;;9.75;3.85;;;11.40;54.40;;;;;;5106341;28;20023;-60
2022/04/30 02:59:53;;;;;;;6.85;4.00;;;11.30;54.40;;;;;;5097110;28;20040;-61
2022/04/30 03:00:30;;;;;;;6.25;4.05;;;11.30;54.80;;;;;;5101859;28;20063;-61
2022/04/30 03:02:57;;;;;;;5.15;3.65;;;11.30;54.50;;;;;;5098374;28;20065;-60
2022/04/30 03:05:23;;;;;;;7.55;3.63;;;11.30;54.60;;;;;;5100848;28;20032;-61
2022/04/30 03:07:49;;;;;;;5.25;3.85;;;11.30;54.70;;;;;;5104107;28;20032;-60
2022/04/30 03:10:15;;;;;;;5.25;3.60;;;11.30;54.80;;;;;;5098688;28;20031;-60
2022/04/30 03:12:41;;;;;;;9.10;3.92;;;11.40;55.00;;;;;;5105771;28;20056;-60
2022/04/30 03:15:07;;;;;;;5.32;3.70;;;11.40;55.10;;;;;;5096452;28;20092;-61
2022/04/30 03:23:02;;;;;;;;;;;11.40;55.10;;;;;;5100537;28;20047;-61
2022/04/30 03:25:28;;;;;;;6.35;3.50;;;11.50;54.70;;;;;;5040355;28;19908;-61
2022/04/30 03:27:54;;;;;;;5.88;4.03;;;11.40;54.20;;;;;;5104078;28;20035;-59
2022/04/30 03:30:20;;;;;;;9.50;4.47;;;11.40;54.60;;;;;;5102418;28;20028;-61
2022/04/30 03:32:45;;;;;;;8.25;4.30;;;11.40;54.80;;;;;;5095432;28;20398;-60
2022/04/30 03:35:11;;;;;;;6.53;4.80;;;11.40;54.80;;;;;;5096876;28;20646;-61
2022/04/30 03:37:37;;;;;;;5.40;4.25;;;11.30;55.00;;;;;;5099280;28;20073;-60
2022/04/30 03:40:04;;;;;;;4.10;3.67;;;11.30;55.00;;;;;;5102468;28;20029;-60
2022/04/30 03:42:30;;;;;;;5.55;4.05;;;11.30;55.10;;;;;;5096745;28;20078;-60
2022/04/30 03:44:56;;;;;;;4.88;4.13;;;11.30;55.10;;;;;;5105728;28;20035;-61
2022/04/30 03:47:22;;;;;;;5.75;3.83;;;11.30;55.30;;;;;;5109072;28;20024;-59
2022/04/30 03:49:48;;;;;;;4.57;3.65;;;11.30;55.40;;;;;;5102894;28;20095;-59
2022/04/30 03:52:14;;;;;;;6.50;3.92;;;11.30;55.40;;;;;;5093150;28;20039;-60
2022/04/30 03:54:39;;;;;;;5.68;4.28;;;11.30;55.50;;;;;;5102046;28;20143;-59
2022/04/30 03:57:06;;;;;;;4.75;3.90;;;11.30;55.60;;;;;;5109050;28;20102;-60
2022/04/30 03:59:32;;;;;;;7.13;3.95;;;11.30;55.60;;;;;;5097668;28;20036;-59
2022/04/30 04:01:59;;;;;;;6.70;3.80;;;11.30;55.60;;;;;;5099176;28;20029;-59
2022/04/30 04:04:25;;;;;;;7.57;3.75;;;11.30;55.50;;;;;;5098458;28;20020;-59
2022/04/30 04:06:52;;;;;;;5.97;4.00;;;11.30;55.50;;;;;;5103409;28;20043;-60
2022/04/30 04:09:17;;;;;;;5.05;3.47;;;11.30;55.60;;;;;;5096854;28;20025;-59
2022/04/30 04:11:43;;;;;;;8.00;4.28;;;11.30;55.70;;;;;;5106615;28;20035;-60
2022/04/30 04:19:37;;;;;;;8.68;3.67;;;11.20;55.70;;;;;;5093617;28;20043;-60
2022/04/30 04:22:03;;;;;;;9.00;4.30;;;11.20;55.50;;;;;;5098090;28;20043;-60
2022/04/30 04:27:14;;;;;;;6.05;3.90;;;11.20;56.00;;;;;;5098446;28;20038;-59
2022/04/30 04:29:40;;;;;;;5.05;3.83;;;11.20;56.00;;;;;;5102763;28;20134;-59
2022/04/30 04:32:06;;;;;;;7.05;4.45;;;11.20;56.10;;;;;;5100987;28;20032;-60
2022/04/30 04:34:32;;;;;;;9.77;5.75;;;11.20;56.20;;;;;;5094680;28;20032;-60
2022/04/30 04:36:57;;;;;;;11.73;5.47;;;11.20;56.20;;;;;;5102491;28;20151;-61
2022/04/30 04:39:23;;;;;;;7.95;5.00;;;11.20;56.30;;;;;;5104589;28;20028;-60
2022/04/30 04:41:49;;;;;;;9.65;5.72;;;11.20;56.40;;;;;;5096205;28;20028;-60
2022/04/30 04:44:14;;;;;;;11.18;6.20;;;11.30;56.40;;;;;;5098291;28;20023;-60
2022/04/30 04:46:40;;;;;;;10.13;6.25;;;11.30;56.10;;;;;;5096010;28;20031;-59
2022/04/30 04:49:07;;;;;;;9.63;5.53;;;11.30;56.30;;;;;;5107255;28;20039;-60
2022/04/30 04:51:36;;;;;;;8.57;5.18;;;11.30;56.50;;;;;;5108255;28;20078;-61
2022/04/30 04:54:02;;;;;;;8.73;4.45;;;11.30;56.90;;;;;;5103181;28;20027;-61
2022/04/30 04:56:29;;;;;;;7.68;4.07;;;11.30;56.90;;;;;;5105258;28;20032;-60
2022/04/30 04:58:55;;;;;;;9.25;4.30;;;11.30;56.90;;;;;;5108784;28;20558;-59
2022/04/30 05:01:21;;;;;;;6.30;4.22;;;11.30;56.90;;;;;;5108687;28;20028;-61
2022/04/30 05:03:47;;;;;;;6.32;4.22;;;11.40;57.20;;;;;;5106573;28;20525;-59
2022/04/30 05:06:12;;;;;;;9.07;4.53;;;11.40;57.30;;;;;;5108326;28;20024;-61
2022/04/30 05:08:38;;;;;;;6.93;4.45;;;11.50;57.40;;;;;;5104304;28;20085;-61
2022/04/30 05:11:04;;;;;;;5.30;4.50;;;11.50;57.40;;;;;;5096298;28;20039;-61
2022/04/30 05:13:29;;;;;;;7.90;4.15;;;11.50;57.30;;;;;;5107159;28;20031;-61
2022/04/30 05:15:55;;;;;;;5.80;3.72;;;11.60;57.30;;;;;;5108705;28;20028;-61
2022/04/30 05:18:21;;;;;;;8.98;4.03;;;11.60;57.30;;;;;;5096092;28;20024;-60
2022/04/30 05:20:47;;;;;;;13.40;3.88;;;11.70;57.50;;;;;;5106562;28;20020;-62
2022/04/30 05:23:12;;;;;;;5.50;3.88;;;11.70;57.60;;;;;;5098266;28;20040;-60
2022/04/30 05:25:40;;;;;;;5.72;4.03;;;11.80;57.50;;;;;;5101906;28;20935;-60
2022/04/30 05:28:09;;;;;;;10.70;4.68;;;11.80;57.60;;;;;;5094702;28;20036;-59
2022/04/30 05:30:35;;;;;;;7.85;4.10;;;11.90;57.70;;;;;;5104017;28;20020;-60
2022/04/30 05:33:01;;;;;;;6.78;4.38;;;12.00;57.50;;;;;;5094321;28;20076;-62
2022/04/30 05:35:28;;;;;;;9.55;4.47;;;12.00;57.50;;;;;;5107345;28;20032;-61
2022/04/30 05:37:53;;;;;;;10.98;5.07;;;12.10;57.50;;;;;;5100758;28;20111;-60
2022/04/30 05:40:19;;;;;;;7.53;4.68;;;12.10;57.30;;;;;;5101500;28;20032;-60
2022/04/30 05:42:45;;;;;;;9.52;4.55;;;12.20;57.20;;;;;;5104911;28;20012;-60
2022/04/30 05:45:11;;;;;;;7.78;4.30;;;12.30;57.30;;;;;;5102668;28;20031;-62
2022/04/30 05:47:37;;;;;;;6.80;4.30;;;12.30;57.20;;;;;;5098503;28;20036;-62
2022/04/30 05:50:04;;;;;;;8.55;4.90;;;12.40;57.20;;;;;;5103937;28;20040;-60
2022/04/30 05:52:30;;;;;;;8.57;5.10;;;12.50;56.90;;;;;;5105315;28;20031;-60
2022/04/30 05:54:56;;;;;;;7.82;5.30;;;12.50;56.80;;;;;;5098756;28;20104;-61
2022/04/30 05:57:22;;;;;;;9.27;4.63;;;12.60;57.00;;;;;;5102858;28;20035;-61
2022/04/30 05:59:47;;;;;;;12.25;5.72;;;12.60;57.00;;;;;;5109384;28;20123;-62
2022/04/30 06:02:13;;;;;;;10.13;5.82;;;12.60;57.20;;;;;;5103099;28;20039;-59
2022/04/30 06:04:38;;;;;;;10.25;6.53;;;12.70;57.30;;;;;;5103039;28;20068;-60
2022/04/30 06:07:04;;;;;;;11.18;7.68;;;12.80;57.30;;;;;;5108054;28;20020;-60
2022/04/30 06:09:30;;;;;;;12.38;8.13;;;12.80;57.30;;;;;;5108470;28;20456;-61
2022/04/30 06:11:55;;;;;;;16.02;11.68;;;12.90;57.50;;;;;;5104631;28;20055;-59
2022/04/30 06:14:21;;;;;;;22.17;10.57;;;12.90;57.50;;;;;;5102364;28;20032;-60
2022/04/30 06:16:47;;;;;;;14.82;10.32;;;13.00;57.80;;;;;;5105775;28;20040;-60
2022/04/30 06:19:13;;;;;;;15.25;10.48;;;13.00;57.90;;;;;;5104934;28;20032;-62
2022/04/30 06:21:39;;;;;;;16.17;10.10;;;13.10;58.10;;;;;;5104010;28;20035;-60
2022/04/30 06:24:05;;;;;;;15.93;10.55;;;13.20;58.30;;;;;;5110106;28;20083;-60
2022/04/30 06:26:32;;;;;;;22.92;12.35;;;13.30;58.30;;;;;;5106233;28;20008;-60
2022/04/30 06:28:58;;;;;;;19.08;11.48;;;13.40;58.40;;;;;;5096617;28;20024;-61
2022/04/30 06:31:24;;;;;;;17.48;12.07;;;13.50;58.30;;;;;;5094417;28;20035;-60
2022/04/30 06:33:52;;;;;;;20.23;12.68;;;13.50;58.30;;;;;;5110189;28;20019;-60
2022/04/30 06:36:17;;;;;;;21.27;12.70;;;13.60;58.40;;;;;;5096024;28;20040;-60
2022/04/30 06:38:43;;;;;;;17.75;12.32;;;13.70;58.40;;;;;;5106476;28;20028;-60
2022/04/30 06:41:09;;;;;;;15.98;11.57;;;13.80;58.60;;;;;;5097615;28;20093;-60
2022/04/30 06:43:34;;;;;;;22.10;12.00;;;13.90;58.60;;;;;;5097850;28;20036;-60
2022/04/30 06:46:00;;;;;;;22.55;13.00;;;14.00;58.50;;;;;;5102399;28;20032;-60
2022/04/30 06:48:25;;;;;;;16.88;12.15;;;14.10;58.20;;;;;;5095866;28;20050;-61
2022/04/30 06:50:51;;;;;;;20.75;13.02;;;14.20;58.00;;;;;;5098403;28;20029;-59
2022/04/30 06:58:50;;;;;;;16.35;11.73;;;14.50;57.90;;;;;;5104637;28;20051;-59
2022/04/30 07:04:01;;;;;;;15.25;11.35;;;14.70;57.70;;;;;;5105404;28;20124;-60
2022/04/30 07:06:30;;;;;;;17.20;11.57;;;14.70;57.50;;;;;;5101150;28;20054;-61
2022/04/30 07:08:56;;;;;;;16.35;11.38;;;14.80;57.30;;;;;;5111087;28;20079;-59
2022/04/30 07:11:22;;;;;;;19.15;12.80;;;14.90;57.40;;;;;;5105299;28;20028;-60
2022/04/30 07:13:48;;;;;;;18.08;12.80;;;14.90;57.20;;;;;;5109809;28;20030;-61
2022/04/30 07:16:13;;;;;;;22.88;12.48;;;15.00;57.00;;;;;;5107649;28;20027;-62
2022/04/30 07:18:39;;;;;;;22.98;11.80;;;15.00;56.80;;;;;;5108230;28;20063;-61
2022/04/30 07:21:05;;;;;;;17.60;11.77;;;15.00;56.80;;;;;;5102965;28;20080;-61
2022/04/30 07:23:31;;;;;;;16.52;11.25;;;15.00;56.70;;;;;;5109750;28;20294;-61
2022/04/30 07:25:57;;;;;;;17.02;10.90;;;15.00;57.00;;;;;;5105803;28;20032;-61
2022/04/30 07:28:23;;;;;;;18.67;11.43;;;15.00;57.00;;;;;;5101742;28;20039;-61
2022/04/30 07:30:52;;;;;;;19.23;11.50;;;15.00;57.10;;;;;;5098803;28;20024;-62
2022/04/30 07:33:17;;;;;;;17.77;12.57;;;15.00;56.90;;;;;;5100433;28;20015;-61
2022/04/30 07:35:43;;;;;;;21.50;11.95;;;15.00;57.50;;;;;;5114594;28;20501;-63
2022/04/30 07:38:09;;;;;;;18.98;12.48;;;15.10;56.90;;;;;;5098516;28;20090;-61
2022/04/30 07:40:38;;;;;;;16.35;11.63;;;15.10;56.80;;;;;;5103838;28;20024;-62
2022/04/30 07:43:04;;;;;;;19.70;10.52;;;15.20;56.70;;;;;;5098615;28;20024;-61
2022/04/30 07:45:30;;;;;;;18.38;11.52;;;15.20;56.80;;;;;;5103726;28;20121;-61
2022/04/30 07:47:56;;;;;;;16.67;11.30;;;15.20;56.70;;;;;;5106458;28;20078;-61
2022/04/30 07:50:23;;;;;;;18.40;11.68;;;15.20;56.70;;;;;;5104577;28;20048;-62
2022/04/30 07:52:49;;;;;;;16.00;11.23;;;15.30;56.70;;;;;;5104738;28;20031;-61
2022/04/30 07:55:15;;;;;;;15.82;11.77;;;15.30;56.60;;;;;;5105080;28;20034;-62
2022/04/30 07:57:41;;;;;;;14.45;10.50;;;15.40;56.80;;;;;;5093311;28;20071;-61
2022/04/30 08:00:07;;;;;;;14.48;10.40;;;15.40;56.40;;;;;;5108824;28;20103;-61
2022/04/30 08:02:33;;;;;;;16.08;10.75;;;15.50;56.40;;;;;;5096932;28;20027;-61
2022/04/30 08:05:01;;;;;;;14.63;10.93;;;15.50;56.40;;;;;;5101878;28;20043;-61
2022/04/30 08:07:27;;;;;;;17.33;10.88;;;15.60;56.30;;;;;;5107874;28;20103;-61
2022/04/30 08:09:52;;;;;;;14.27;10.48;;;15.60;56.10;;;;;;5103891;28;20067;-60
2022/04/30 08:12:18;;;;;;;16.90;10.65;;;15.70;56.00;;;;;;5110283;28;20024;-61
2022/04/30 08:14:45;;;;;;;15.55;10.80;;;15.70;56.00;;;;;;5109873;28;20020;-61
2022/04/30 08:17:13;;;;;;;16.95;9.73;;;15.70;55.70;;;;;;5106228;28;20036;-61
2022/04/30 08:19:39;;;;;;;18.02;10.73;;;15.80;55.70;;;;;;5108119;28;20023;-61
2022/04/30 08:22:05;;;;;;;15.23;10.48;;;15.90;55.80;;;;;;5108832;28;20040;-60
2022/04/30 08:24:30;;;;;;;15.85;10.23;;;15.90;55.70;;;;;;5096375;28;20059;-61
2022/04/30 08:26:57;;;;;;;16.13;10.40;;;15.90;55.90;;;;;;5100887;28;20055;-61
2022/04/30 08:29:23;;;;;;;18.70;10.18;;;16.00;55.60;;;;;;5099125;28;20017;-61
2022/04/30 08:31:49;;;;;;;15.75;11.40;;;16.10;55.50;;;;;;5092668;28;20078;-60
2022/04/30 08:34:15;;;;;;;17.58;10.77;;;16.10;55.30;;;;;;5107937;28;20024;-61
2022/04/30 08:36:41;;;;;;;13.02;9.38;;;16.10;55.10;;;;;;5107124;28;20073;-60
2022/04/30 08:39:07;;;;;;;17.58;10.23;;;16.20;55.10;;;;;;5109941;28;20031;-61
2022/04/30 08:41:33;;;;;;;14.60;10.27;;;16.30;55.30;;;;;;5105546;28;20020;-61
2022/04/30 08:43:59;;;;;;;17.25;11.00;;;16.30;55.40;;;;;;5108308;28;20030;-61
2022/04/30 08:46:24;;;;;;;16.25;11.77;;;16.40;55.30;;;;;;5108260;28;20051;-60
2022/04/30 08:48:50;;;;;;;16.27;10.98;;;16.50;55.00;;;;;;5108102;28;20069;-60
2022/04/30 08:51:16;;;;;;;14.80;11.27;;;16.50;54.80;;;;;;5104430;28;20024;-61
2022/04/30 08:53:42;;;;;;;20.02;10.90;;;16.50;54.60;;;;;;5105261;28;20020;-61
2022/04/30 08:56:08;;;;;;;17.83;11.20;;;16.50;54.60;;;;;;5108984;28;20053;-61
2022/04/30 08:58:34;;;;;;;17.75;12.18;;;16.50;54.50;;;;;;5109954;28;20093;-61
2022/04/30 09:01:03;;;;;;;20.58;11.00;;;16.50;55.10;;;;;;5110806;28;20033;-61
2022/04/30 09:03:37;;;;;;;16.63;10.50;;;16.50;54.50;;;;;;5105502;28;20036;-60
2022/04/30 09:06:06;;;;;;;15.05;10.45;;;16.50;54.40;;;;;;5108870;28;20042;-61
2022/04/30 09:08:32;;;;;;;16.80;10.93;;;16.50;54.50;;;;;;5104408;28;20043;-61
2022/04/30 09:11:06;;;;;;;13.07;10.90;;;16.50;54.40;;;;;;5102648;28;20024;-61
2022/04/30 09:13:32;;;;;;;19.88;11.27;;;16.50;54.70;;;;;;5105097;28;20510;-61
2022/04/30 09:15:58;;;;;;;14.98;11.02;;;16.50;54.70;;;;;;5099660;28;20027;-61
2022/04/30 09:18:24;;;;;;;20.67;10.73;;;16.50;54.70;;;;;;5107213;28;20098;-61
2022/04/30 09:20:53;;;;;;;15.25;10.65;;;16.60;55.30;;;;;;5109910;28;20078;-62
2022/04/30 09:23:25;;;;;;;18.88;10.65;;;16.60;54.70;;;;;;5111897;28;20372;-61
2022/04/30 09:25:55;;;;;;;16.35;10.23;;;16.60;54.60;;;;;;5099152;28;20139;-60
2022/04/30 09:28:28;;;;;;;16.90;11.73;;;16.60;54.50;;;;;;5106667;28;20058;-61
2022/04/30 09:31:08;;;;;;;19.00;10.40;;;16.60;54.70;;;;;;5105651;28;20115;-60
2022/04/30 09:33:36;;;;;;;13.88;10.35;;;16.60;54.60;;;;;;5104130;28;20040;-60
2022/04/30 09:38:52;;;;;;;15.30;10.25;;;16.50;54.50;;;;;;5101295;28;20053;-61
2022/04/30 09:41:26;;;;;;;14.45;10.30;;;16.50;54.40;;;;;;5099584;28;20029;-60
2022/04/30 09:44:04;;;;;;;;;;;16.50;54.50;;;;;;5113628;28;20031;-60
2022/04/30 09:46:32;;;;;;;14.50;9.55;;;16.60;54.40;;;;;;5103682;28;19908;-60
2022/04/30 09:54:29;;;;;;;;;;;16.80;54.80;;;;;;5107201;28;20081;-60
2022/04/30 09:56:58;;;;;;;13.90;9.55;;;16.90;54.50;;;;;;5107361;28;20007;-60
2022/04/30 09:59:25;;;;;;;17.35;12.00;;;17.10;55.00;;;;;;5111639;28;20092;-60
2022/04/30 10:01:53;;;;;;;14.20;10.48;;;17.30;55.00;;;;;;5105882;28;20055;-60
2022/04/30 10:04:19;;;;;;;14.50;10.73;;;17.60;55.20;;;;;;5103136;28;20051;-60
2022/04/30 10:06:48;;;;;;;15.25;10.43;;;17.90;54.60;;;;;;5104395;28;20093;-61
2022/04/30 10:09:16;;;;;;;14.30;9.98;;;18.30;54.90;;;;;;5108484;28;20497;-62
2022/04/30 10:12:06;;;;;;;11.95;9.13;;;18.70;54.20;;;;;;5105138;28;20035;-61
2022/04/30 10:14:43;;;;;;;14.55;9.77;;;19.00;53.70;;;;;;5103144;28;20024;-62
2022/04/30 10:17:15;;;;;;;11.60;8.85;;;19.40;52.20;;;;;;5102854;28;20047;-61
2022/04/30 10:19:55;;;;;;;14.88;8.73;;;19.70;51.80;;;;;;5099803;28;20467;-61
2022/04/30 10:22:21;;;;;;;13.25;9.57;;;19.80;50.90;;;;;;5099190;28;20084;-61
2022/04/30 10:24:52;;;;;;;17.15;9.85;;;20.00;50.30;;;;;;5101520;28;20025;-61
2022/04/30 10:27:19;;;;;;;16.25;9.77;;;20.00;49.90;;;;;;5105998;28;20023;-61
2022/04/30 10:29:55;;;;;;;13.15;9.20;;;19.90;49.60;;;;;;5108144;28;20028;-60
2022/04/30 10:32:28;;;;;;;12.35;9.23;;;19.80;49.20;;;;;;5099710;28;20024;-60
2022/04/30 10:34:55;;;;;;;11.77;9.25;;;19.80;49.20;;;;;;5108447;28;20032;-60
2022/04/30 10:37:40;;;;;;;14.10;9.40;;;19.70;49.20;;;;;;5103825;28;20066;-60
2022/04/30 10:40:11;;;;;;;12.35;9.30;;;19.60;48.90;;;;;;5098499;28;20028;-60
2022/04/30 10:42:45;;;;;;;12.85;8.95;;;19.50;49.20;;;;;;5104296;28;20020;-60
2022/04/30 10:45:15;;;;;;;10.75;9.35;;;19.40;48.80;;;;;;5107642;28;20120;-60
2022/04/30 10:47:55;;;;;;;11.85;9.43;;;19.30;48.90;;;;;;5099292;28;20126;-60
2022/04/30 10:50:21;;;;;;;11.07;8.68;;;19.20;48.50;;;;;;5105005;28;20047;-60
2022/04/30 10:52:49;;;;;;;16.55;11.70;;;19.10;48.80;;;;;;5103033;28;20579;-62
2022/04/30 10:55:22;;;;;;;16.15;11.90;;;19.00;49.70;;;;;;5098290;28;20043;-61
2022/04/30 10:57:48;;;;;;;13.20;10.25;;;18.80;50.10;;;;;;5099166;28;20127;-61
2022/04/30 11:00:14;;;;;;;14.45;10.25;;;18.60;50.20;;;;;;5092384;28;20063;-61
2022/04/30 11:02:40;;;;;;;12.68;10.10;;;18.40;50.20;;;;;;5101986;28;20039;-60
2022/04/30 11:05:22;;;;;;;16.30;10.30;;;18.10;50.30;;;;;;5097679;28;20028;-61
2022/04/30 11:07:48;;;;;;;10.82;8.15;;;17.90;50.80;;;;;;5102129;28;20040;-61
2022/04/30 11:10:14;;;;;;;13.10;7.57;;;17.70;50.60;;;;;;5100672;28;20036;-61
2022/04/30 11:12:40;;;;;;;12.80;8.35;;;17.40;50.70;;;;;;5106074;28;20035;-61
2022/04/30 11:15:06;;;;;;;9.80;6.57;;;17.30;51.00;;;;;;5094051;28;20107;-61
2022/04/30 11:17:42;;;;;;;10.93;6.90;;;17.10;51.00;;;;;;5105153;28;20266;-60
2022/04/30 11:20:09;;;;;;;15.20;8.20;;;17.00;51.50;;;;;;5094259;28;20024;-61
2022/04/30 11:22:34;;;;;;;13.32;8.98;;;16.90;51.60;;;;;;5108827;28;20079;-61
2022/04/30 11:25:00;;;;;;;13.90;9.32;;;16.70;51.80;;;;;;5104459;28;20020;-60
2022/04/30 11:27:29;;;;;;;11.00;8.68;;;16.60;52.20;;;;;;5109114;28;20095;-61
2022/04/30 11:29:58;;;;;;;14.50;8.55;;;16.40;52.90;;;;;;5105603;28;20016;-62
2022/04/30 11:32:29;;;;;;;9.40;6.35;;;16.30;53.00;;;;;;5105242;28;20489;-61
2022/04/30 11:35:00;;;;;;;9.43;6.97;;;16.10;53.30;;;;;;5097658;28;20068;-61
2022/04/30 11:37:25;;;;;;;12.88;9.32;;;16.00;53.40;;;;;;5110121;28;20051;-60
2022/04/30 11:39:51;;;;;;;12.13;8.15;;;15.90;53.90;;;;;;5096186;28;20031;-61
2022/04/30 11:42:17;;;;;;;15.63;8.85;;;15.80;54.60;;;;;;5103590;28;20091;-61
2022/04/30 11:44:43;;;;;;;6.78;5.97;;;15.70;55.10;;;;;;5110301;28;20081;-60
2022/04/30 11:47:09;;;;;;;7.78;5.78;;;15.60;54.50;;;;;;5106350;28;20016;-60
2022/04/30 11:49:35;;;;;;;10.50;6.25;;;15.50;54.00;;;;;;5104670;28;20134;-60
2022/04/30 11:52:02;;;;;;;9.57;5.70;;;15.40;53.90;;;;;;5102451;28;20070;-60
2022/04/30 11:54:29;;;;;;;7.65;6.03;;;15.30;54.00;;;;;;5097713;28;20023;-60
2022/04/30 11:56:57;;;;;;;8.65;6.10;;;15.30;54.20;;;;;;5093081;28;20073;-61
2022/04/30 11:59:37;;;;;;;10.60;7.18;;;15.20;55.00;;;;;;5101201;28;20358;-60
2022/04/30 12:02:06;;;;;;;10.10;7.63;;;15.20;56.00;;;;;;5097650;28;20057;-60
2022/04/30 12:04:34;;;;;;;8.50;6.38;;;15.10;56.00;;;;;;5100933;28;20084;-60
2022/04/30 12:07:02;;;;;;;9.95;7.45;;;15.00;56.70;;;;;;5099665;28;20198;-60
2022/04/30 12:09:30;;;;;;;9.68;6.93;;;14.90;56.90;;;;;;5095065;28;20107;-60
2022/04/30 12:11:56;;;;;;;9.80;6.63;;;14.80;56.50;;;;;;5103994;28;20024;-60
2022/04/30 12:14:23;;;;;;;10.48;7.55;;;14.80;56.60;;;;;;5103104;28;20089;-59
2022/04/30 12:16:49;;;;;;;10.55;7.75;;;14.60;56.90;;;;;;5104276;28;20091;-60
2022/04/30 12:25:12;;;;;;;12.07;8.70;;;14.40;58.90;;;;;;5097907;28;20102;-59
2022/04/30 12:27:41;;;;;;;12.13;8.70;;;14.30;58.70;;;;;;5100473;28;20032;-60
2022/04/30 12:30:14;;;;;;;13.05;9.45;;;14.30;58.60;;;;;;5100600;28;20057;-59
2022/04/30 12:32:53;;;;;;;9.45;8.05;;;14.20;59.70;;;;;;5103243;28;20092;-60
2022/04/30 12:35:28;;;;;;;22.05;10.57;;;14.10;60.10;;;;;;5097810;28;20362;-59
2022/04/30 12:38:09;;;;;;;11.60;8.23;;;14.10;59.90;;;;;;5105486;28;20066;-59
2022/04/30 12:40:43;;;;;;;12.70;8.43;;;14.10;60.60;;;;;;5102163;28;20025;-60
2022/04/30 12:43:09;;;;;;;12.05;6.95;;;14.00;59.90;;;;;;5097325;28;20054;-60
2022/04/30 12:45:37;;;;;;;8.55;6.88;;;14.00;60.00;;;;;;5103583;28;20042;-59
2022/04/30 12:48:04;;;;;;;8.20;6.18;;;14.00;60.40;;;;;;5106089;28;20107;-59
2022/04/30 12:50:32;;;;;;;9.05;5.57;;;14.00;60.50;;;;;;5085498;28;20044;-59
2022/04/30 12:52:59;;;;;;;8.48;5.68;;;14.00;60.60;;;;;;5105461;28;20028;-59
2022/04/30 12:55:25;;;;;;;9.80;7.35;;;14.00;60.80;;;;;;5103958;28;20021;-61
2022/04/30 12:57:51;;;;;;;11.35;7.32;;;14.10;60.90;;;;;;5096978;28;20035;-62
2022/04/30 13:00:17;;;;;;;8.48;6.07;;;14.10;61.20;;;;;;5103296;28;20024;-60
2022/04/30 13:02:44;;;;;;;7.85;6.00;;;14.10;61.20;;;;;;5103048;28;20015;-60
2022/04/30 13:05:12;;;;;;;7.57;5.40;;;14.10;61.20;;;;;;5098112;28;20024;-60
2022/04/30 13:07:39;;;;;;;6.90;4.75;;;14.20;61.20;;;;;;5106850;28;20016;-60
2022/04/30 13:15:34;;;;;;;6.55;4.72;;;14.20;61.30;;;;;;5100470;28;20514;-60
2022/04/30 13:18:01;;;;;;;5.45;4.63;;;14.20;61.10;;;;;;5101187;28;20036;-60
2022/04/30 13:20:28;;;;;;;6.65;4.45;;;14.30;61.30;;;;;;5104429;28;20039;-60
2022/04/30 13:22:56;;;;;;;7.03;4.18;;;14.20;61.10;;;;;;5104718;28;20024;-59
2022/04/30 13:25:23;;;;;;;5.97;4.82;;;14.20;61.20;;;;;;5101949;28;20080;-59
2022/04/30 13:27:49;;;;;;;5.88;4.20;;;14.20;61.40;;;;;;5097637;28;20483;-59
2022/04/30 13:30:15;;;;;;;5.90;4.53;;;14.10;61.60;;;;;;5111904;28;20032;-60